Tahlequah, OK

2:17 PM CST on February 13, 2016 (GMT -0600)
Tahlequah Municipal | | Change Station
CLOSE
Current Station
Airport
Location: Tahlequah,
Elevation: 873 ft
Nearby Weather Stations

Elev 873 ft 35.93 °N, 95.00 °W | Updated 22 minutes ago

Clear
Clear
52 °F
Feels Like 52 °F
N
9
Wind Variable Wind from SE

Today
High -- | Low -- °F
--% Chance of Precip.
Yesterday
High -- | Low -- °F
Precip. -- in
Pressure 30.34 in
Visibility 10.0 miles
Clouds Clear
Dew Point 21 °F
Humidity 30%
Rainfall 0.00 in
Snow Depth Not available.
7:09 AM 5:59 PM
Waxing Crescent, 33% visible
METAR KTQH 131955Z AUTO 13008KT 10SM CLR 11/M06 A3034 RMK AO2
Pressure 30.34 in
Visibility 10.0 miles
Clouds Clear
Dew Point 21 °F
Humidity 30%
Rainfall 0.00 in
Snow Depth Not available.
7:09 AM 5:59 PM
Waxing Crescent, 33% visible
METAR KTQH 131955Z AUTO 13008KT 10SM CLR 11/M06 A3034 RMK AO2

10-Day Weather Forecast

Almanac

Astronomy

Feb. 13, 2016 Rise Set
Actual Time
Civil Twilight
Nautical Twilight
Astronomical Twilight
Moon
Length of Visible Light
Length of Day
Tomorrow will be .
, % of the Moon is Illuminated

Today's Extremes

State Highs State Lows

Community

WunderPhotos

Upload Photos

1,892,658 photos uploaded!

WunderBlog® & News

Nearby

Air Quality

  Air Quality AQ Index Pollutant
Not available.

Snow Depth

Station Depth Elevation

Earthquake Activity

City Distance Mag. Time & Date
Minimum magnitude displayed is 2.5.

Coastal Water Temperatures

Place Temperature

Stations

Nearby Weather Stations

Station Location Temp. Windchill Dew Point Humidity Wind Precip. Elev Updated Type
                   

Watches & Warnings

There are currently no watches in effect.